sensor_id;sensor_type;location;lat;lon;timestamp;pressure;altitude;pressure_sealevel;temperature;humidity
27587;BME280;15019;49.002;8.420;2022-07-23T00:01:15;100113.88;;;24.87;81.60
27587;BME280;15019;49.002;8.420;2022-07-23T00:03:41;100111.91;;;24.91;82.80
27587;BME280;15019;49.002;8.420;2022-07-23T00:06:08;100108.13;;;24.82;81.93
27587;BME280;15019;49.002;8.420;2022-07-23T00:09:03;100108.13;;;24.82;82.20
27587;BME280;15019;49.002;8.420;2022-07-23T00:11:32;100099.81;;;24.77;82.33
27587;BME280;15019;49.002;8.420;2022-07-23T00:14:01;100109.44;;;24.75;82.76
27587;BME280;15019;49.002;8.420;2022-07-23T00:16:27;100117.03;;;24.78;81.06
27587;BME280;15019;49.002;8.420;2022-07-23T00:18:58;100117.41;;;24.72;80.80
27587;BME280;15019;49.002;8.420;2022-07-23T00:21:24;100121.75;;;24.71;81.14
27587;BME280;15019;49.002;8.420;2022-07-23T00:23:50;100123.06;;;24.64;81.22
27587;BME280;15019;49.002;8.420;2022-07-23T00:26:17;100123.81;;;24.66;81.64
27587;BME280;15019;49.002;8.420;2022-07-23T00:28:47;100116.31;;;24.62;80.63
27587;BME280;15019;49.002;8.420;2022-07-23T00:31:23;100122.06;;;24.53;83.49
27587;BME280;15019;49.002;8.420;2022-07-23T00:33:50;100119.28;;;24.41;82.54
27587;BME280;15019;49.002;8.420;2022-07-23T00:36:30;100120.09;;;24.42;82.56
27587;BME280;15019;49.002;8.420;2022-07-23T00:39:01;100128.34;;;24.34;82.80
27587;BME280;15019;49.002;8.420;2022-07-23T00:41:51;100122.66;;;24.28;82.29
27587;BME280;15019;49.002;8.420;2022-07-23T00:44:32;100114.47;;;24.35;82.48
27587;BME280;15019;49.002;8.420;2022-07-23T00:47:03;100112.59;;;24.37;81.24
27587;BME280;15019;49.002;8.420;2022-07-23T00:50:13;100100.19;;;24.28;82.77
27587;BME280;15019;49.002;8.420;2022-07-23T00:52:54;100106.13;;;24.30;80.55
27587;BME280;15019;49.002;8.420;2022-07-23T00:55:48;100110.00;;;24.23;80.17
27587;BME280;15019;49.002;8.420;2022-07-23T00:58:22;100109.47;;;24.32;79.45
27587;BME280;15019;49.002;8.420;2022-07-23T01:00:50;100107.97;;;24.28;79.78
27587;BME280;15019;49.002;8.420;2022-07-23T01:03:18;100122.88;;;24.25;79.24
27587;BME280;15019;49.002;8.420;2022-07-23T01:06:10;100120.88;;;24.14;78.68
27587;BME280;15019;49.002;8.420;2022-07-23T01:08:57;100106.91;;;24.02;80.10
27587;BME280;15019;49.002;8.420;2022-07-23T01:11:27;100097.00;;;24.09;79.52
27587;BME280;15019;49.002;8.420;2022-07-23T01:14:17;100085.97;;;24.05;78.40
27587;BME280;15019;49.002;8.420;2022-07-23T01:16:46;100074.59;;;24.08;81.60
27587;BME280;15019;49.002;8.420;2022-07-23T01:19:21;100084.97;;;24.08;79.13
27587;BME280;15019;49.002;8.420;2022-07-23T01:21:53;100102.56;;;24.03;79.20
27587;BME280;15019;49.002;8.420;2022-07-23T01:24:18;100102.72;;;24.00;78.34
27587;BME280;15019;49.002;8.420;2022-07-23T01:26:45;100116.59;;;23.99;76.86
27587;BME280;15019;49.002;8.420;2022-07-23T01:29:12;100118.56;;;24.09;79.10
27587;BME280;15019;49.002;8.420;2022-07-23T01:31:42;100111.03;;;24.05;77.46
27587;BME280;15019;49.002;8.420;2022-07-23T01:34:10;100119.25;;;23.97;77.19
27587;BME280;15019;49.002;8.420;2022-07-23T01:36:36;100114.25;;;23.94;77.72
27587;BME280;15019;49.002;8.420;2022-07-23T01:39:04;100116.38;;;23.88;78.27
27587;BME280;15019;49.002;8.420;2022-07-23T01:41:41;100111.16;;;23.73;78.37
27587;BME280;15019;49.002;8.420;2022-07-23T01:44:15;100105.41;;;23.68;79.36
27587;BME280;15019;49.002;8.420;2022-07-23T01:46:41;100124.91;;;23.60;79.14
27587;BME280;15019;49.002;8.420;2022-07-23T01:49:30;100109.63;;;23.40;79.89
27587;BME280;15019;49.002;8.420;2022-07-23T01:52:09;100120.53;;;23.45;80.13
27587;BME280;15019;49.002;8.420;2022-07-23T01:54:40;100117.13;;;23.44;79.32
27587;BME280;15019;49.002;8.420;2022-07-23T01:57:11;100107.03;;;23.40;79.64
27587;BME280;15019;49.002;8.420;2022-07-23T01:59:39;100099.88;;;23.29;79.63
27587;BME280;15019;49.002;8.420;2022-07-23T02:02:12;100096.38;;;23.30;79.09
27587;BME280;15019;49.002;8.420;2022-07-23T02:04:38;100081.53;;;23.18;79.36
27587;BME280;15019;49.002;8.420;2022-07-23T02:07:14;100083.59;;;23.11;78.97
27587;BME280;15019;49.002;8.420;2022-07-23T02:10:01;100093.28;;;23.08;79.50
27587;BME280;15019;49.002;8.420;2022-07-23T02:12:43;100106.03;;;23.11;79.31
27587;BME280;15019;49.002;8.420;2022-07-23T02:15:11;100097.72;;;23.06;78.49
27587;BME280;15019;49.002;8.420;2022-07-23T02:17:40;100106.31;;;23.06;78.51
27587;BME280;15019;49.002;8.420;2022-07-23T02:20:11;100110.03;;;23.00;78.09
27587;BME280;15019;49.002;8.420;2022-07-23T02:22:49;100122.91;;;23.02;78.35
27587;BME280;15019;49.002;8.420;2022-07-23T02:25:14;100127.41;;;22.98;78.94
27587;BME280;15019;49.002;8.420;2022-07-23T02:27:40;100129.28;;;22.79;79.71
27587;BME280;15019;49.002;8.420;2022-07-23T02:30:08;100125.88;;;22.79;80.59
27587;BME280;15019;49.002;8.420;2022-07-23T02:32:35;100133.72;;;22.77;80.49
27587;BME280;15019;49.002;8.420;2022-07-23T02:35:04;100135.56;;;22.75;79.63
27587;BME280;15019;49.002;8.420;2022-07-23T02:37:33;100130.38;;;22.75;79.09
27587;BME280;15019;49.002;8.420;2022-07-23T02:40:00;100130.50;;;22.72;78.52
27587;BME280;15019;49.002;8.420;2022-07-23T02:42:25;100137.00;;;22.63;78.05
27587;BME280;15019;49.002;8.420;2022-07-23T02:44:53;100144.81;;;22.62;78.39
27587;BME280;15019;49.002;8.420;2022-07-23T02:47:18;100128.97;;;22.52;77.65
27587;BME280;15019;49.002;8.420;2022-07-23T02:49:48;100142.31;;;22.60;78.54
27587;BME280;15019;49.002;8.420;2022-07-23T02:52:17;100139.31;;;22.52;78.35
27587;BME280;15019;49.002;8.420;2022-07-23T02:55:05;100143.63;;;22.52;77.35
27587;BME280;15019;49.002;8.420;2022-07-23T02:57:39;100153.50;;;22.61;77.32
27587;BME280;15019;49.002;8.420;2022-07-23T03:00:15;100169.00;;;22.61;77.41
27587;BME280;15019;49.002;8.420;2022-07-23T03:03:03;100174.31;;;22.58;77.66
27587;BME280;15019;49.002;8.420;2022-07-23T03:05:52;100173.88;;;22.67;76.44
27587;BME280;15019;49.002;8.420;2022-07-23T03:08:26;100171.91;;;22.55;79.03
27587;BME280;15019;49.002;8.420;2022-07-23T03:10:53;100181.00;;;22.62;78.59
27587;BME280;15019;49.002;8.420;2022-07-23T03:13:24;100174.03;;;22.64;78.26
27587;BME280;15019;49.002;8.420;2022-07-23T03:15:52;100177.38;;;22.66;76.96
27587;BME280;15019;49.002;8.420;2022-07-23T03:18:19;100181.84;;;22.62;76.98
27587;BME280;15019;49.002;8.420;2022-07-23T03:20:51;100179.63;;;22.72;77.70
27587;BME280;15019;49.002;8.420;2022-07-23T03:23:17;100172.78;;;22.71;75.76
27587;BME280;15019;49.002;8.420;2022-07-23T03:25:43;100190.88;;;22.71;76.46
27587;BME280;15019;49.002;8.420;2022-07-23T03:28:10;100194.38;;;22.70;78.18
27587;BME280;15019;49.002;8.420;2022-07-23T03:30:47;100195.22;;;22.71;77.27
27587;BME280;15019;49.002;8.420;2022-07-23T03:33:15;100191.34;;;22.62;76.81
27587;BME280;15019;49.002;8.420;2022-07-23T03:35:55;100174.44;;;22.56;76.61
27587;BME280;15019;49.002;8.420;2022-07-23T03:38:28;100173.88;;;22.50;76.97
27587;BME280;15019;49.002;8.420;2022-07-23T03:40:58;100176.94;;;22.41;77.66
27587;BME280;15019;49.002;8.420;2022-07-23T03:43:23;100172.00;;;22.36;77.14
27587;BME280;15019;49.002;8.420;2022-07-23T03:45:49;100168.56;;;22.36;77.35
27587;BME280;15019;49.002;8.420;2022-07-23T03:48:25;100166.47;;;22.44;78.97
27587;BME280;15019;49.002;8.420;2022-07-23T03:51:03;100159.91;;;22.37;76.64
27587;BME280;15019;49.002;8.420;2022-07-23T03:53:33;100162.63;;;22.51;78.46
27587;BME280;15019;49.002;8.420;2022-07-23T03:56:06;100163.13;;;22.42;76.96
27587;BME280;15019;49.002;8.420;2022-07-23T03:58:32;100162.75;;;22.32;78.54
27587;BME280;15019;49.002;8.420;2022-07-23T04:01:05;100178.00;;;22.37;77.84
27587;BME280;15019;49.002;8.420;2022-07-23T04:03:33;100187.59;;;22.35;78.55
27587;BME280;15019;49.002;8.420;2022-07-23T04:06:15;100199.44;;;22.39;77.78
27587;BME280;15019;49.002;8.420;2022-07-23T04:08:40;100202.91;;;22.38;78.44
27587;BME280;15019;49.002;8.420;2022-07-23T04:11:07;100200.50;;;22.35;78.21
27587;BME280;15019;49.002;8.420;2022-07-23T04:13:40;100208.72;;;22.43;78.17
27587;BME280;15019;49.002;8.420;2022-07-23T04:16:06;100215.06;;;22.36;79.94
27587;BME280;15019;49.002;8.420;2022-07-23T04:18:32;100219.03;;;22.43;80.10
27587;BME280;15019;49.002;8.420;2022-07-23T04:21:01;100206.28;;;22.40;80.57
27587;BME280;15019;49.002;8.420;2022-07-23T04:23:46;100196.63;;;22.43;80.60
27587;BME280;15019;49.002;8.420;2022-07-23T04:26:11;100203.00;;;22.36;79.56
27587;BME280;15019;49.002;8.420;2022-07-23T04:28:37;100194.94;;;22.42;79.35
27587;BME280;15019;49.002;8.420;2022-07-23T04:31:02;100190.63;;;22.43;80.06
27587;BME280;15019;49.002;8.420;2022-07-23T04:33:28;100203.69;;;22.40;80.07
27587;BME280;15019;49.002;8.420;2022-07-23T04:35:54;100221.47;;;22.46;80.11
27587;BME280;15019;49.002;8.420;2022-07-23T04:38:21;100222.28;;;22.46;80.46
27587;BME280;15019;49.002;8.420;2022-07-23T04:40:51;100227.72;;;22.42;80.81
27587;BME280;15019;49.002;8.420;2022-07-23T04:43:46;100232.25;;;22.37;80.77
27587;BME280;15019;49.002;8.420;2022-07-23T04:46:23;100245.19;;;22.54;82.10
27587;BME280;15019;49.002;8.420;2022-07-23T04:49:19;100236.81;;;22.66;80.23
27587;BME280;15019;49.002;8.420;2022-07-23T04:51:45;100243.66;;;22.67;79.60
27587;BME280;15019;49.002;8.420;2022-07-23T04:54:13;100235.91;;;22.67;80.33
27587;BME280;15019;49.002;8.420;2022-07-23T04:56:38;100238.34;;;22.53;80.56
27587;BME280;15019;49.002;8.420;2022-07-23T04:59:07;100247.78;;;22.54;80.31
27587;BME280;15019;49.002;8.420;2022-07-23T05:01:39;100248.97;;;22.47;79.65
27587;BME280;15019;49.002;8.420;2022-07-23T05:04:05;100262.81;;;22.46;81.80
27587;BME280;15019;49.002;8.420;2022-07-23T05:06:31;100261.75;;;22.50;82.46
27587;BME280;15019;49.002;8.420;2022-07-23T05:08:57;100284.84;;;22.53;83.09
27587;BME280;15019;49.002;8.420;2022-07-23T05:11:41;100279.13;;;22.46;82.13
27587;BME280;15019;49.002;8.420;2022-07-23T05:14:07;100280.81;;;22.47;82.90
27587;BME280;15019;49.002;8.420;2022-07-23T05:19:27;100260.31;;;22.44;82.30
27587;BME280;15019;49.002;8.420;2022-07-23T05:21:53;100248.59;;;22.54;82.57
27587;BME280;15019;49.002;8.420;2022-07-23T05:24:18;100238.03;;;22.59;82.74
27587;BME280;15019;49.002;8.420;2022-07-23T05:26:44;100247.38;;;22.61;82.07
27587;BME280;15019;49.002;8.420;2022-07-23T05:29:09;100248.50;;;22.73;82.21
27587;BME280;15019;49.002;8.420;2022-07-23T05:31:58;100247.16;;;22.83;80.81
27587;BME280;15019;49.002;8.420;2022-07-23T05:34:24;100240.53;;;23.11;79.87
27587;BME280;15019;49.002;8.420;2022-07-23T05:37:03;100228.63;;;23.08;77.70
27587;BME280;15019;49.002;8.420;2022-07-23T05:39:29;100230.53;;;23.05;77.58
27587;BME280;15019;49.002;8.420;2022-07-23T05:41:56;100250.25;;;23.23;76.29
27587;BME280;15019;49.002;8.420;2022-07-23T05:44:21;100244.91;;;23.26;77.40
27587;BME280;15019;49.002;8.420;2022-07-23T05:46:49;100258.75;;;23.25;76.67
27587;BME280;15019;49.002;8.420;2022-07-23T05:49:16;100263.28;;;23.37;78.23
27587;BME280;15019;49.002;8.420;2022-07-23T05:51:51;100273.72;;;23.20;79.36
27587;BME280;15019;49.002;8.420;2022-07-23T05:54:46;100271.22;;;23.01;79.58
27587;BME280;15019;49.002;8.420;2022-07-23T05:57:31;100282.00;;;22.76;81.99
27587;BME280;15019;49.002;8.420;2022-07-23T05:59:57;100281.34;;;22.71;84.29
27587;BME280;15019;49.002;8.420;2022-07-23T06:02:22;100276.09;;;22.73;84.96
27587;BME280;15019;49.002;8.420;2022-07-23T06:04:51;100271.78;;;22.39;100.00
27587;BME280;15019;49.002;8.420;2022-07-23T06:07:19;100271.59;;;22.07;100.00
27587;BME280;15019;49.002;8.420;2022-07-23T06:09:53;100281.94;;;21.70;100.00
27587;BME280;15019;49.002;8.420;2022-07-23T06:12:49;100280.13;;;21.34;100.00
27587;BME280;15019;49.002;8.420;2022-07-23T06:15:44;100308.47;;;21.34;100.00
27587;BME280;15019;49.002;8.420;2022-07-23T06:18:42;100321.38;;;21.34;100.00
27587;BME280;15019;49.002;8.420;2022-07-23T06:21:08;100324.75;;;21.36;100.00
27587;BME280;15019;49.002;8.420;2022-07-23T06:23:35;100318.31;;;21.45;100.00
27587;BME280;15019;49.002;8.420;2022-07-23T06:26:00;100313.16;;;21.26;100.00
27587;BME280;15019;49.002;8.420;2022-07-23T06:28:26;100322.94;;;21.38;100.00
27587;BME280;15019;49.002;8.420;2022-07-23T06:30:54;100320.53;;;21.34;100.00
27587;BME280;15019;49.002;8.420;2022-07-23T06:33:23;100329.47;;;21.45;100.00
27587;BME280;15019;49.002;8.420;2022-07-23T06:35:49;100329.47;;;21.45;100.00
27587;BME280;15019;49.002;8.420;2022-07-23T06:38:32;100319.69;;;21.33;100.00
27587;BME280;15019;49.002;8.420;2022-07-23T06:41:10;100317.91;;;21.35;100.00
27587;BME280;15019;49.002;8.420;2022-07-23T06:43:44;100319.28;;;21.42;100.00
27587;BME280;15019;49.002;8.420;2022-07-23T06:46:31;100307.16;;;21.44;100.00
27587;BME280;15019;49.002;8.420;2022-07-23T06:49:06;100308.31;;;21.58;100.00
27587;BME280;15019;49.002;8.420;2022-07-23T06:51:35;100312.75;;;21.73;100.00
27587;BME280;15019;49.002;8.420;2022-07-23T06:54:07;100330.19;;;21.86;100.00
27587;BME280;15019;49.002;8.420;2022-07-23T06:56:33;100333.00;;;21.82;100.00
27587;BME280;15019;49.002;8.420;2022-07-23T06:58:58;100326.28;;;22.15;100.00
27587;BME280;15019;49.002;8.420;2022-07-23T07:01:26;100330.47;;;22.54;100.00
27587;BME280;15019;49.002;8.420;2022-07-23T07:03:54;100343.97;;;22.42;100.00
27587;BME280;15019;49.002;8.420;2022-07-23T07:06:25;100343.00;;;22.25;100.00
27587;BME280;15019;49.002;8.420;2022-07-23T07:08:58;100343.59;;;22.32;100.00
27587;BME280;15019;49.002;8.420;2022-07-23T07:11:46;100342.50;;;22.00;100.00
27587;BME280;15019;49.002;8.420;2022-07-23T07:14:12;100340.75;;;22.01;100.00
27587;BME280;15019;49.002;8.420;2022-07-23T07:16:41;100332.84;;;21.85;100.00
27587;BME280;15019;49.002;8.420;2022-07-23T07:19:48;100332.06;;;21.83;100.00
27587;BME280;15019;49.002;8.420;2022-07-23T07:22:30;100337.88;;;21.88;100.00
27587;BME280;15019;49.002;8.420;2022-07-23T07:25:00;100336.69;;;21.95;100.00
27587;BME280;15019;49.002;8.420;2022-07-23T07:27:48;100346.81;;;22.18;100.00
27587;BME280;15019;49.002;8.420;2022-07-23T07:30:24;100343.22;;;22.40;100.00
27587;BME280;15019;49.002;8.420;2022-07-23T07:32:50;100350.06;;;22.58;100.00
27587;BME280;15019;49.002;8.420;2022-07-23T07:35:15;100343.91;;;22.60;100.00
27587;BME280;15019;49.002;8.420;2022-07-23T07:37:40;100348.97;;;22.98;100.00
27587;BME280;15019;49.002;8.420;2022-07-23T07:40:06;100355.75;;;23.84;100.00
27587;BME280;15019;49.002;8.420;2022-07-23T07:42:33;100359.41;;;24.72;92.86
27587;BME280;15019;49.002;8.420;2022-07-23T07:44:58;100360.03;;;25.50;92.71
27587;BME280;15019;49.002;8.420;2022-07-23T07:47:24;100362.53;;;26.21;87.68
27587;BME280;15019;49.002;8.420;2022-07-23T07:49:49;100359.38;;;26.82;80.12
27587;BME280;15019;49.002;8.420;2022-07-23T07:52:14;100358.44;;;25.90;81.02
27587;BME280;15019;49.002;8.420;2022-07-23T07:54:40;100369.19;;;26.25;79.87
27587;BME280;15019;49.002;8.420;2022-07-23T07:57:05;100364.44;;;27.49;75.17
27587;BME280;15019;49.002;8.420;2022-07-23T07:59:32;100374.88;;;27.11;74.75
27587;BME280;15019;49.002;8.420;2022-07-23T08:01:58;100377.38;;;26.33;77.05
27587;BME280;15019;49.002;8.420;2022-07-23T08:04:23;100370.34;;;26.07;79.94
27587;BME280;15019;49.002;8.420;2022-07-23T08:06:49;100370.78;;;26.54;76.12
27587;BME280;15019;49.002;8.420;2022-07-23T08:09:14;100375.00;;;26.70;76.86
27587;BME280;15019;49.002;8.420;2022-07-23T08:11:40;100379.66;;;25.97;79.19
27587;BME280;15019;49.002;8.420;2022-07-23T08:14:05;100385.06;;;25.94;79.76
27587;BME280;15019;49.002;8.420;2022-07-23T08:16:30;100388.09;;;26.00;80.55
27587;BME280;15019;49.002;8.420;2022-07-23T08:18:56;100386.72;;;27.02;77.74
27587;BME280;15019;49.002;8.420;2022-07-23T08:21:21;100389.25;;;27.54;74.66
27587;BME280;15019;49.002;8.420;2022-07-23T08:23:51;100392.69;;;28.40;69.83
27587;BME280;15019;49.002;8.420;2022-07-23T08:26:55;100385.72;;;28.76;69.29
27587;BME280;15019;49.002;8.420;2022-07-23T08:29:54;100379.22;;;28.47;67.58
27587;BME280;15019;49.002;8.420;2022-07-23T08:33:00;100389.34;;;28.27;68.88
27587;BME280;15019;49.002;8.420;2022-07-23T08:35:33;100390.81;;;28.66;65.82
27587;BME280;15019;49.002;8.420;2022-07-23T08:38:01;100404.38;;;29.18;68.17
27587;BME280;15019;49.002;8.420;2022-07-23T08:40:28;100392.94;;;29.54;61.49
27587;BME280;15019;49.002;8.420;2022-07-23T08:42:54;100389.00;;;29.70;60.40
27587;BME280;15019;49.002;8.420;2022-07-23T08:45:21;100395.53;;;29.65;62.33
27587;BME280;15019;49.002;8.420;2022-07-23T08:47:49;100398.91;;;30.21;61.39
27587;BME280;15019;49.002;8.420;2022-07-23T08:50:14;100402.03;;;30.15;57.78
27587;BME280;15019;49.002;8.420;2022-07-23T08:52:40;100398.13;;;30.41;58.95
27587;BME280;15019;49.002;8.420;2022-07-23T08:55:07;100400.88;;;30.51;54.65
27587;BME280;15019;49.002;8.420;2022-07-23T08:57:32;100402.88;;;30.15;55.90
27587;BME280;15019;49.002;8.420;2022-07-23T08:59:58;100403.09;;;30.87;55.54
27587;BME280;15019;49.002;8.420;2022-07-23T09:02:23;100395.09;;;30.89;56.51
27587;BME280;15019;49.002;8.420;2022-07-23T09:04:48;100401.88;;;30.28;58.97
27587;BME280;15019;49.002;8.420;2022-07-23T09:07:14;100403.03;;;30.99;53.75
27587;BME280;15019;49.002;8.420;2022-07-23T09:09:40;100403.13;;;29.34;59.81
27587;BME280;15019;49.002;8.420;2022-07-23T09:12:07;100402.16;;;29.91;59.71
27587;BME280;15019;49.002;8.420;2022-07-23T09:14:42;100399.31;;;30.05;58.44
27587;BME280;15019;49.002;8.420;2022-07-23T09:17:12;100396.94;;;29.80;57.98
27587;BME280;15019;49.002;8.420;2022-07-23T09:19:39;100387.66;;;29.31;56.81
27587;BME280;15019;49.002;8.420;2022-07-23T09:22:24;100383.88;;;30.02;60.10
27587;BME280;15019;49.002;8.420;2022-07-23T09:25:10;100392.63;;;30.87;53.51
27587;BME280;15019;49.002;8.420;2022-07-23T09:30:13;100391.59;;;31.81;47.67
27587;BME280;15019;49.002;8.420;2022-07-23T09:32:43;100398.53;;;32.42;49.76
27587;BME280;15019;49.002;8.420;2022-07-23T09:35:08;100390.03;;;31.69;49.62
27587;BME280;15019;49.002;8.420;2022-07-23T09:37:34;100388.63;;;31.95;47.69
27587;BME280;15019;49.002;8.420;2022-07-23T09:40:08;100389.56;;;31.94;51.48
27587;BME280;15019;49.002;8.420;2022-07-23T09:42:34;100382.59;;;32.53;48.77
27587;BME280;15019;49.002;8.420;2022-07-23T09:45:01;100388.28;;;32.39;47.66
27587;BME280;15019;49.002;8.420;2022-07-23T09:47:30;100382.41;;;31.96;48.16
27587;BME280;15019;49.002;8.420;2022-07-23T09:49:59;100378.13;;;32.05;47.42
27587;BME280;15019;49.002;8.420;2022-07-23T09:52:29;100380.16;;;31.82;48.41
27587;BME280;15019;49.002;8.420;2022-07-23T09:55:10;100383.63;;;31.52;50.61
27587;BME280;15019;49.002;8.420;2022-07-23T09:57:42;100376.63;;;32.12;48.73
27587;BME280;15019;49.002;8.420;2022-07-23T10:00:15;100387.84;;;32.53;48.35
27587;BME280;15019;49.002;8.420;2022-07-23T10:02:46;100380.25;;;32.88;42.55
27587;BME280;15019;49.002;8.420;2022-07-23T10:05:15;100387.09;;;33.28;44.47
27587;BME280;15019;49.002;8.420;2022-07-23T10:07:41;100372.53;;;32.77;44.82
27587;BME280;15019;49.002;8.420;2022-07-23T10:10:08;100378.63;;;31.80;48.38
27587;BME280;15019;49.002;8.420;2022-07-23T10:12:35;100384.97;;;32.56;43.83
27587;BME280;15019;49.002;8.420;2022-07-23T10:15:01;100381.84;;;31.93;46.98
27587;BME280;15019;49.002;8.420;2022-07-23T10:17:29;100385.66;;;32.19;46.62
27587;BME280;15019;49.002;8.420;2022-07-23T10:19:55;100386.63;;;32.47;44.86
27587;BME280;15019;49.002;8.420;2022-07-23T10:22:26;100386.34;;;32.60;44.19
27587;BME280;15019;49.002;8.420;2022-07-23T10:25:18;100376.41;;;30.93;47.79
27587;BME280;15019;49.002;8.420;2022-07-23T10:30:28;100382.38;;;30.84;47.02
27587;BME280;15019;49.002;8.420;2022-07-23T10:36:28;100383.06;;;31.58;46.32
27587;BME280;15019;49.002;8.420;2022-07-23T10:39:22;100389.75;;;30.70;47.87
27587;BME280;15019;49.002;8.420;2022-07-23T10:41:47;100384.81;;;30.76;46.87
27587;BME280;15019;49.002;8.420;2022-07-23T10:44:15;100379.78;;;31.56;46.58
27587;BME280;15019;49.002;8.420;2022-07-23T10:47:00;100385.97;;;31.86;43.54
27587;BME280;15019;49.002;8.420;2022-07-23T10:49:28;100389.00;;;31.20;45.31
27587;BME280;15019;49.002;8.420;2022-07-23T10:52:19;100387.63;;;30.84;47.42
27587;BME280;15019;49.002;8.420;2022-07-23T10:55:38;100385.19;;;32.14;47.58
27587;BME280;15019;49.002;8.420;2022-07-23T10:57:49;100389.41;;;32.84;44.00
27587;BME280;15019;49.002;8.420;2022-07-23T11:00:25;100382.84;;;33.07;44.08
27587;BME280;15019;49.002;8.420;2022-07-23T11:02:53;100376.63;;;33.83;43.28
27587;BME280;15019;49.002;8.420;2022-07-23T11:05:20;100386.44;;;33.06;44.01
27587;BME280;15019;49.002;8.420;2022-07-23T11:13:31;100383.03;;;32.67;44.25
27587;BME280;15019;49.002;8.420;2022-07-23T11:16:04;100384.31;;;31.85;43.26
27587;BME280;15019;49.002;8.420;2022-07-23T11:37:11;100375.50;;;32.05;45.92
27587;BME280;15019;49.002;8.420;2022-07-23T11:39:38;100373.81;;;31.85;44.20
27587;BME280;15019;49.002;8.420;2022-07-23T11:42:06;100373.13;;;31.52;45.62
27587;BME280;15019;49.002;8.420;2022-07-23T11:44:37;100366.44;;;31.69;45.38
27587;BME280;15019;49.002;8.420;2022-07-23T11:47:09;100366.81;;;30.83;47.04
27587;BME280;15019;49.002;8.420;2022-07-23T11:49:35;100361.94;;;31.81;46.88
27587;BME280;15019;49.002;8.420;2022-07-23T11:52:14;100370.03;;;32.27;44.62
27587;BME280;15019;49.002;8.420;2022-07-23T11:55:01;100368.03;;;31.91;44.83
27587;BME280;15019;49.002;8.420;2022-07-23T11:57:32;100367.56;;;31.15;45.25
27587;BME280;15019;49.002;8.420;2022-07-23T12:02:32;100363.44;;;31.74;45.30
27587;BME280;15019;49.002;8.420;2022-07-23T12:04:58;100368.94;;;32.40;42.91
27587;BME280;15019;49.002;8.420;2022-07-23T12:09:56;100348.34;;;32.25;43.71
27587;BME280;15019;49.002;8.420;2022-07-23T12:12:22;100344.50;;;31.70;44.44
27587;BME280;15019;49.002;8.420;2022-07-23T12:17:14;100338.56;;;32.27;45.60
27587;BME280;15019;49.002;8.420;2022-07-23T12:19:39;100343.81;;;32.27;45.86
27587;BME280;15019;49.002;8.420;2022-07-23T12:22:05;100337.16;;;32.43;42.38
27587;BME280;15019;49.002;8.420;2022-07-23T12:24:52;100338.22;;;32.11;44.96
27587;BME280;15019;49.002;8.420;2022-07-23T12:27:20;100336.84;;;32.07;45.31
27587;BME280;15019;49.002;8.420;2022-07-23T12:29:45;100334.13;;;32.18;44.93
27587;BME280;15019;49.002;8.420;2022-07-23T12:32:42;100340.75;;;32.32;44.48
27587;BME280;15019;49.002;8.420;2022-07-23T12:35:08;100338.28;;;32.40;46.62
27587;BME280;15019;49.002;8.420;2022-07-23T12:37:44;100336.88;;;32.46;42.33
27587;BME280;15019;49.002;8.420;2022-07-23T12:40:29;100339.59;;;31.96;42.58
27587;BME280;15019;49.002;8.420;2022-07-23T12:45:22;100335.81;;;32.19;44.38
27587;BME280;15019;49.002;8.420;2022-07-23T12:48:05;100327.88;;;31.50;45.06
27587;BME280;15019;49.002;8.420;2022-07-23T12:53:08;100327.25;;;31.07;46.61
27587;BME280;15019;49.002;8.420;2022-07-23T12:55:35;100345.13;;;30.71;48.04
27587;BME280;15019;49.002;8.420;2022-07-23T12:58:17;100326.38;;;30.55;49.10
27587;BME280;15019;49.002;8.420;2022-07-23T13:01:01;100329.34;;;30.82;48.15
27587;BME280;15019;49.002;8.420;2022-07-23T13:03:29;100321.47;;;30.82;45.42
27587;BME280;15019;49.002;8.420;2022-07-23T13:05:58;100319.50;;;30.43;46.41
27587;BME280;15019;49.002;8.420;2022-07-23T13:08:24;100315.56;;;30.28;48.07
27587;BME280;15019;49.002;8.420;2022-07-23T13:10:50;100321.53;;;30.18;49.40
27587;BME280;15019;49.002;8.420;2022-07-23T13:13:17;100320.09;;;30.46;51.46
27587;BME280;15019;49.002;8.420;2022-07-23T13:15:43;100321.47;;;30.09;49.28
27587;BME280;15019;49.002;8.420;2022-07-23T13:18:09;100323.59;;;30.36;49.41
27587;BME280;15019;49.002;8.420;2022-07-23T13:20:34;100325.13;;;30.91;46.27
27587;BME280;15019;49.002;8.420;2022-07-23T13:23:00;100326.09;;;31.20;46.22
27587;BME280;15019;49.002;8.420;2022-07-23T13:25:28;100320.34;;;31.06;48.95
27587;BME280;15019;49.002;8.420;2022-07-23T13:27:53;100323.41;;;31.32;46.99
27587;BME280;15019;49.002;8.420;2022-07-23T13:30:19;100327.25;;;31.37;44.17
27587;BME280;15019;49.002;8.420;2022-07-23T13:32:44;100323.09;;;31.25;43.15
27587;BME280;15019;49.002;8.420;2022-07-23T13:35:10;100321.16;;;31.27;47.90
27587;BME280;15019;49.002;8.420;2022-07-23T13:37:36;100322.66;;;31.20;44.47
27587;BME280;15019;49.002;8.420;2022-07-23T13:40:02;100329.97;;;31.26;46.70
27587;BME280;15019;49.002;8.420;2022-07-23T13:42:28;100323.38;;;31.22;45.07
27587;BME280;15019;49.002;8.420;2022-07-23T13:44:53;100328.97;;;30.97;43.97
27587;BME280;15019;49.002;8.420;2022-07-23T13:47:18;100333.56;;;30.42;45.48
27587;BME280;15019;49.002;8.420;2022-07-23T13:49:44;100328.84;;;30.36;48.72
27587;BME280;15019;49.002;8.420;2022-07-23T13:52:11;100320.78;;;30.60;44.66
27587;BME280;15019;49.002;8.420;2022-07-23T13:54:36;100319.59;;;30.94;47.78
27587;BME280;15019;49.002;8.420;2022-07-23T13:57:03;100307.25;;;31.06;45.21
27587;BME280;15019;49.002;8.420;2022-07-23T13:59:28;100306.13;;;30.99;44.16